createdAt,value
2017-11-18T00:01:43.161Z,48.37
2017-11-18T00:04:10.751Z,42.83
2017-11-18T00:06:38.254Z,44.30
2017-11-18T00:09:05.796Z,53.50
2017-11-18T00:11:33.307Z,51.60
2017-11-18T00:14:01.623Z,63.60
2017-11-18T00:16:29.129Z,66.27
2017-11-18T00:18:56.627Z,55.67
2017-11-18T00:21:24.940Z,57.70
2017-11-18T00:23:52.464Z,40.83
2017-11-18T00:26:20.006Z,50.10
2017-11-18T00:28:47.508Z,46.73
2017-11-18T00:31:15.093Z,48.87
2017-11-18T00:33:42.605Z,49.37
2017-11-18T00:36:10.197Z,49.20
2017-11-18T00:38:37.708Z,44.10
2017-11-18T00:41:05.219Z,44.63
2017-11-18T00:43:32.765Z,37.37
2017-11-18T00:46:00.270Z,40.63
2017-11-18T00:48:27.828Z,45.63
2017-11-18T00:50:55.373Z,42.80
2017-11-18T00:53:24.435Z,56.77
2017-11-18T00:55:51.951Z,55.27
2017-11-18T00:58:19.509Z,40.60
2017-11-18T01:00:47.029Z,41.87
2017-11-18T01:03:14.635Z,47.60
2017-11-18T01:05:42.148Z,65.27
2017-11-18T01:08:10.450Z,42.43
2017-11-18T01:10:38.750Z,44.50
2017-11-18T01:13:06.259Z,53.17
2017-11-18T01:15:33.790Z,59.27
2017-11-18T01:18:01.284Z,47.57
2017-11-18T01:20:28.822Z,45.17
2017-11-18T01:22:57.095Z,67.20
2017-11-18T01:25:24.633Z,58.27
2017-11-18T01:27:52.138Z,55.80
2017-11-18T01:30:19.691Z,62.73
2017-11-18T01:32:47.217Z,67.97
2017-11-18T01:35:14.774Z,70.20
2017-11-18T01:37:42.309Z,55.47
2017-11-18T01:40:09.814Z,41.50
2017-11-18T01:42:38.125Z,59.90
2017-11-18T01:45:05.636Z,53.03
2017-11-18T01:47:33.175Z,62.60
2017-11-18T01:50:00.683Z,57.23
2017-11-18T01:52:28.224Z,57.70
2017-11-18T01:54:55.730Z,63.07
2017-11-18T01:57:23.287Z,58.33
2017-11-18T01:59:50.793Z,35.00
2017-11-18T02:02:43.124Z,61.60
2017-11-18T02:05:10.627Z,58.97
2017-11-18T02:07:39.094Z,51.77
2017-11-18T02:10:06.664Z,56.70
2017-11-18T02:12:34.173Z,54.43
2017-11-18T02:15:02.486Z,52.50
2017-11-18T02:17:30.019Z,51.20
2017-11-18T02:19:57.566Z,49.03
2017-11-18T02:22:25.071Z,44.50
2017-11-18T02:24:53.370Z,53.67
2017-11-18T02:27:20.866Z,41.60
2017-11-18T02:29:48.402Z,46.63
2017-11-18T02:32:16.670Z,59.30
2017-11-18T02:34:44.214Z,37.37
2017-11-18T02:37:15.497Z,44.60
2017-11-18T02:39:42.990Z,33.20
2017-11-18T02:42:10.539Z,34.90
2017-11-18T02:44:38.310Z,53.23
2017-11-18T02:47:06.660Z,32.60
2017-11-18T02:49:34.166Z,35.13
2017-11-18T02:52:01.701Z,34.53
2017-11-18T02:54:29.236Z,42.50
2017-11-18T02:56:56.813Z,38.83
2017-11-18T02:59:24.323Z,36.90
2017-11-18T03:01:51.874Z,40.07
2017-11-18T03:04:19.383Z,36.17
2017-11-18T03:06:46.967Z,34.43
2017-11-18T03:09:14.453Z,39.90
2017-11-18T03:11:42.091Z,36.70
2017-11-18T03:14:09.589Z,34.73
2017-11-18T03:16:37.087Z,38.80
2017-11-18T03:19:04.628Z,35.33
2017-11-18T03:21:32.123Z,40.13
2017-11-18T03:23:59.667Z,31.77
2017-11-18T03:26:27.166Z,23.60
2017-11-18T03:28:54.665Z,27.20
2017-11-18T03:31:23.678Z,30.17
2017-11-18T03:33:51.951Z,27.33
2017-11-18T03:36:20.310Z,30.70
2017-11-18T03:38:47.825Z,29.90
2017-11-18T03:41:17.541Z,34.00
2017-11-18T03:43:45.814Z,20.90
2017-11-18T03:46:13.351Z,22.80
2017-11-18T03:48:40.920Z,22.50
2017-11-18T03:51:08.417Z,32.47
2017-11-18T03:53:35.964Z,29.33
2017-11-18T03:56:03.470Z,35.37
2017-11-18T03:58:32.870Z,29.10
2017-11-18T04:01:00.411Z,22.27
2017-11-18T04:03:27.900Z,26.17
2017-11-18T04:05:56.855Z,27.77
2017-11-18T04:08:25.115Z,32.67
2017-11-18T04:10:53.443Z,16.97
2017-11-18T04:13:21.759Z,19.07
2017-11-18T04:15:50.664Z,20.70
2017-11-18T04:18:18.163Z,25.37
2017-11-18T04:20:46.905Z,20.00
2017-11-18T04:23:15.221Z,23.33
2017-11-18T04:25:42.721Z,19.67
2017-11-18T04:28:10.372Z,19.60
2017-11-18T04:30:37.902Z,24.97
2017-11-18T04:33:05.404Z,32.27
2017-11-18T04:35:34.334Z,19.50
2017-11-18T04:38:01.826Z,22.20
2017-11-18T04:40:29.373Z,23.40
2017-11-18T04:42:56.867Z,23.60
2017-11-18T04:45:24.432Z,26.53
2017-11-18T04:47:51.948Z,25.63
2017-11-18T04:50:19.442Z,26.10
2017-11-18T04:52:46.978Z,32.87
2017-11-18T04:55:15.243Z,23.93
2017-11-18T04:57:44.643Z,31.40
2017-11-18T05:00:12.471Z,21.83
2017-11-18T05:02:40.726Z,31.77
2017-11-18T05:05:08.312Z,30.30
2017-11-18T05:07:35.805Z,23.67
2017-11-18T05:10:04.084Z,30.90
2017-11-18T05:12:32.378Z,27.67
2017-11-18T05:15:00.634Z,34.23
2017-11-18T05:17:28.157Z,29.70
2017-11-18T05:19:56.135Z,27.93
2017-11-18T05:22:23.675Z,29.10
2017-11-18T05:24:51.174Z,23.37
2017-11-18T05:27:19.496Z,26.90
2017-11-18T05:29:46.995Z,32.17
2017-11-18T05:32:14.526Z,35.00
2017-11-18T05:34:42.055Z,45.23
2017-11-18T05:37:09.550Z,31.90
2017-11-18T05:39:37.090Z,29.37
2017-11-18T05:42:04.612Z,40.10
2017-11-18T05:44:32.146Z,30.07
2017-11-18T05:47:00.419Z,39.80
2017-11-18T05:49:27.968Z,46.37
2017-11-18T05:51:55.468Z,41.10
2017-11-18T05:54:22.973Z,49.90
2017-11-18T05:56:51.266Z,42.60
2017-11-18T05:59:19.551Z,50.87
2017-11-18T06:01:47.095Z,47.47
2017-11-18T06:04:14.598Z,41.23
2017-11-18T06:06:43.281Z,49.10
2017-11-18T06:09:10.797Z,47.83
2017-11-18T06:11:38.305Z,54.47
2017-11-18T06:14:05.866Z,42.87
2017-11-18T06:16:33.372Z,43.47
2017-11-18T06:19:00.906Z,56.93
2017-11-18T06:21:28.408Z,47.17
2017-11-18T06:23:55.943Z,41.17
2017-11-18T06:26:23.446Z,39.03
2017-11-18T06:28:51.756Z,46.47
2017-11-18T06:31:20.019Z,51.60
2017-11-18T06:33:47.571Z,45.43
2017-11-18T06:36:15.078Z,53.83
2017-11-18T06:38:43.347Z,47.10
2017-11-18T06:41:10.878Z,46.70
2017-11-18T06:43:38.376Z,41.70
2017-11-18T06:46:05.925Z,36.30
2017-11-18T06:48:33.425Z,45.63
2017-11-18T06:51:00.962Z,31.37
2017-11-18T06:53:28.560Z,36.23
2017-11-18T06:55:56.115Z,31.70
2017-11-18T06:58:23.602Z,36.20
2017-11-18T07:00:51.140Z,31.03
2017-11-18T07:03:18.823Z,35.50
2017-11-18T07:05:46.353Z,24.13
2017-11-18T07:08:13.851Z,23.27
2017-11-18T07:10:41.418Z,21.20
2017-11-18T07:13:08.918Z,25.60
2017-11-18T07:15:36.414Z,25.60
2017-11-18T07:18:03.957Z,28.23
2017-11-18T07:20:31.455Z,25.83
2017-11-18T07:22:58.999Z,25.93
2017-11-18T07:25:26.494Z,22.43
2017-11-18T07:27:54.035Z,27.10
2017-11-18T07:30:21.549Z,26.57
2017-11-18T07:32:49.094Z,22.83
2017-11-18T07:35:16.599Z,27.30
2017-11-18T07:37:44.099Z,28.40
2017-11-18T07:40:12.499Z,33.03
2017-11-18T07:42:40.007Z,22.30
2017-11-18T07:45:07.540Z,24.03
2017-11-18T07:47:35.052Z,20.47
2017-11-18T07:50:02.588Z,25.23
2017-11-18T07:52:30.082Z,22.30
2017-11-18T07:54:57.729Z,34.33
2017-11-18T07:57:28.006Z,22.60
2017-11-18T07:59:55.505Z,25.07
2017-11-18T08:02:23.084Z,18.10
2017-11-18T08:04:50.932Z,22.03
2017-11-18T08:07:18.486Z,17.93
2017-11-18T08:09:45.987Z,18.80
2017-11-18T08:12:15.778Z,20.77
2017-11-18T08:14:43.590Z,25.20
2017-11-18T08:17:11.823Z,23.27
2017-11-18T08:19:42.204Z,16.00
2017-11-18T08:22:09.800Z,16.53
2017-11-18T08:24:38.224Z,15.50
2017-11-18T08:27:06.486Z,12.00
2017-11-18T08:29:34.082Z,11.67
2017-11-18T08:32:02.360Z,13.40
2017-11-18T08:34:29.886Z,12.33
2017-11-18T08:36:57.381Z,12.83
2017-11-18T08:39:24.910Z,14.17
2017-11-18T08:41:52.399Z,8.70
2017-11-18T08:44:19.950Z,32.23
2017-11-18T08:46:47.450Z,20.97
2017-11-18T08:49:14.950Z,14.03
2017-11-18T08:51:42.470Z,7.83
2017-11-18T08:54:09.958Z,12.47
2017-11-18T08:56:37.496Z,14.23
2017-11-18T08:59:05.773Z,11.63
2017-11-18T09:01:34.075Z,17.77
2017-11-18T09:04:02.354Z,13.67
2017-11-18T09:06:31.165Z,17.97
2017-11-18T09:08:58.677Z,13.67
2017-11-18T09:11:26.287Z,9.83
2017-11-18T09:13:53.813Z,19.77
2017-11-18T09:16:21.304Z,13.97
2017-11-18T09:18:48.847Z,13.23
2017-11-18T09:21:16.361Z,12.30
2017-11-18T09:23:43.901Z,9.87
2017-11-18T09:26:11.394Z,14.03
2017-11-18T09:28:38.894Z,13.30
2017-11-18T09:31:07.194Z,16.63
2017-11-18T09:33:35.470Z,9.23
2017-11-18T09:36:03.764Z,7.80
2017-11-18T09:38:32.070Z,14.33
2017-11-18T09:41:00.366Z,11.03
2017-11-18T09:43:27.851Z,6.30
2017-11-18T09:45:55.384Z,12.63
2017-11-18T09:48:23.643Z,10.13
2017-11-18T09:50:51.295Z,11.80
2017-11-18T09:53:18.804Z,17.30
2017-11-18T09:55:46.305Z,9.93
2017-11-18T09:58:14.611Z,14.83
2017-11-18T10:00:42.117Z,11.03
2017-11-18T10:03:10.413Z,14.90
2017-11-18T10:05:37.909Z,9.87
2017-11-18T10:08:05.438Z,12.70
2017-11-18T10:10:32.923Z,12.63
2017-11-18T10:13:00.458Z,18.57
2017-11-18T10:15:27.964Z,19.73
2017-11-18T10:17:55.532Z,13.90
2017-11-18T10:20:23.029Z,15.67
2017-11-18T10:22:50.566Z,12.90
2017-11-18T10:25:18.110Z,13.93
2017-11-18T10:27:45.601Z,16.27
2017-11-18T10:30:13.176Z,16.60
2017-11-18T10:32:40.692Z,19.93
2017-11-18T10:35:08.244Z,10.47
2017-11-18T10:37:35.781Z,19.77
2017-11-18T10:40:03.363Z,16.53
2017-11-18T10:42:30.865Z,11.57
2017-11-18T10:44:58.359Z,9.07
2017-11-18T10:47:25.904Z,19.00
2017-11-18T10:49:53.444Z,22.67
2017-11-18T10:52:20.971Z,17.13
2017-11-18T10:54:48.458Z,17.73
2017-11-18T10:57:16.767Z,17.03
2017-11-18T10:59:44.257Z,14.20
2017-11-18T11:02:11.754Z,12.00
2017-11-18T11:04:39.283Z,15.77
2017-11-18T11:07:06.783Z,13.67
2017-11-18T11:09:34.334Z,14.40
2017-11-18T11:12:01.864Z,11.37
2017-11-18T11:14:29.436Z,11.60
2017-11-18T11:16:57.705Z,7.40
2017-11-18T11:19:25.277Z,7.50
2017-11-18T11:21:52.783Z,11.90
2017-11-18T11:24:20.285Z,14.10
2017-11-18T11:26:47.846Z,16.53
2017-11-18T11:29:15.358Z,8.03
2017-11-18T11:31:42.894Z,5.40
2017-11-18T11:34:11.161Z,9.07
2017-11-18T11:36:39.450Z,9.90
2017-11-18T11:39:06.942Z,6.20
2017-11-18T11:41:34.466Z,10.37
2017-11-18T11:44:01.969Z,5.90
2017-11-18T11:46:29.514Z,5.90
2017-11-18T11:48:57.005Z,22.40
2017-11-18T11:51:24.519Z,16.80
2017-11-18T11:53:52.077Z,13.53
2017-11-18T11:56:19.582Z,20.87
2017-11-18T11:58:47.114Z,9.17
2017-11-18T12:01:14.619Z,9.00
2017-11-18T12:03:42.169Z,11.30
2017-11-18T12:06:10.548Z,13.53
2017-11-18T12:08:38.091Z,13.53
2017-11-18T12:11:06.413Z,14.07
2017-11-18T12:13:33.911Z,5.87
2017-11-18T12:16:01.436Z,4.40
2017-11-18T12:18:29.105Z,9.53
2017-11-18T12:20:57.441Z,14.13
2017-11-18T12:23:24.931Z,8.23
2017-11-18T12:25:52.454Z,11.73
2017-11-18T12:28:19.961Z,7.77
2017-11-18T12:30:47.467Z,9.03
2017-11-18T12:33:14.999Z,9.53
2017-11-18T12:35:42.487Z,9.63
2017-11-18T12:38:10.018Z,13.30
2017-11-18T12:40:38.292Z,8.20
2017-11-18T12:43:06.594Z,14.33
2017-11-18T12:45:34.090Z,9.60
2017-11-18T12:48:01.656Z,15.87
2017-11-18T12:50:29.164Z,9.87
2017-11-18T12:52:56.695Z,10.60
2017-11-18T12:55:24.280Z,8.73
2017-11-18T12:57:51.772Z,9.50
2017-11-18T13:00:19.287Z,8.30
2017-11-18T13:02:46.833Z,18.60
2017-11-18T13:05:14.364Z,6.07
2017-11-18T13:07:41.868Z,4.47
2017-11-18T13:10:09.393Z,7.90
2017-11-18T13:12:36.890Z,12.53
2017-11-18T13:15:04.441Z,5.60
2017-11-18T13:17:31.931Z,6.33
2017-11-18T13:19:59.454Z,9.33
2017-11-18T13:22:26.965Z,9.53
2017-11-18T13:24:54.498Z,8.03
2017-11-18T13:27:21.998Z,12.80
2017-11-18T13:29:49.534Z,9.70
2017-11-18T13:32:19.679Z,5.73
2017-11-18T13:34:47.205Z,7.27
2017-11-18T13:37:15.330Z,9.80
2017-11-18T13:39:42.872Z,8.47
2017-11-18T13:42:10.387Z,8.70
2017-11-18T13:44:37.987Z,9.93
2017-11-18T13:47:05.490Z,7.60
2017-11-18T13:49:33.022Z,9.27
2017-11-18T13:52:00.521Z,7.07
2017-11-18T13:54:28.043Z,7.80
2017-11-18T13:56:55.535Z,7.90
2017-11-18T13:59:23.074Z,12.67
2017-11-18T14:01:50.568Z,6.40
2017-11-18T14:04:18.101Z,9.03
2017-11-18T14:06:46.368Z,16.30
2017-11-18T14:09:13.847Z,8.60
2017-11-18T14:11:41.390Z,9.77
2017-11-18T14:14:08.938Z,9.83
2017-11-18T14:16:37.199Z,9.23
2017-11-18T14:19:04.752Z,10.00
2017-11-18T14:21:32.307Z,11.13
2017-11-18T14:23:59.813Z,10.73
2017-11-18T14:26:28.121Z,7.57
2017-11-18T14:28:55.618Z,5.00
2017-11-18T14:31:23.165Z,12.47
2017-11-18T14:33:50.657Z,6.90
2017-11-18T14:36:18.203Z,11.90
2017-11-18T14:38:45.694Z,15.90
2017-11-18T14:41:13.221Z,9.30
2017-11-18T14:43:40.742Z,8.93
2017-11-18T14:46:08.230Z,8.80
2017-11-18T14:48:35.763Z,16.07
2017-11-18T14:51:03.246Z,12.53
2017-11-18T14:53:30.809Z,6.70
2017-11-18T14:55:58.323Z,11.47
2017-11-18T14:58:25.849Z,9.37
2017-11-18T15:00:53.386Z,17.27
2017-11-18T15:03:20.875Z,12.30
2017-11-18T15:05:48.411Z,9.60
2017-11-18T15:08:15.894Z,8.80
2017-11-18T15:10:43.420Z,3.43
2017-11-18T15:13:10.906Z,9.40
2017-11-18T15:15:38.924Z,13.10
2017-11-18T15:18:12.015Z,10.57
2017-11-18T15:20:45.147Z,12.20
2017-11-18T15:26:26.219Z,9.50
2017-11-18T15:28:54.226Z,10.67
2017-11-18T15:34:49.854Z,10.00
2017-11-18T15:40:23.404Z,8.10
2017-11-18T15:42:50.949Z,14.33
2017-11-18T15:45:21.627Z,9.80
2017-11-18T15:48:09.534Z,9.13
2017-11-18T15:50:39.579Z,10.23
2017-11-18T15:53:13.491Z,5.67
2017-11-18T15:55:58.705Z,9.90
2017-11-18T15:58:27.027Z,17.97
2017-11-18T16:01:00.217Z,7.23
2017-11-18T16:03:27.759Z,8.10
2017-11-18T16:05:56.153Z,6.83
2017-11-18T16:08:24.419Z,9.43
2017-11-18T16:10:52.017Z,7.43
2017-11-18T16:13:19.589Z,11.30
2017-11-18T16:15:47.370Z,6.40
2017-11-18T16:18:14.974Z,11.70
2017-11-18T16:20:42.549Z,7.53
2017-11-18T16:23:10.084Z,12.20
2017-11-18T16:25:38.353Z,13.60
2017-11-18T16:28:05.883Z,7.13
2017-11-18T16:30:33.374Z,9.27
2017-11-18T16:33:00.936Z,12.30
2017-11-18T16:35:28.955Z,18.57
2017-11-18T16:37:56.505Z,14.73
2017-11-18T16:40:24.017Z,7.90
2017-11-18T16:42:52.339Z,14.53
2017-11-18T16:45:19.834Z,5.23
2017-11-18T16:47:47.411Z,11.87
2017-11-18T16:50:14.955Z,12.37
2017-11-18T16:52:42.517Z,7.40
2017-11-18T16:55:10.118Z,11.07
2017-11-18T16:57:37.709Z,7.37
2017-11-18T17:00:05.247Z,7.33
2017-11-18T17:02:32.747Z,17.90
2017-11-18T17:05:00.286Z,8.13
2017-11-18T17:07:27.778Z,10.60
2017-11-18T17:09:55.322Z,8.60
2017-11-18T17:12:23.745Z,7.27
2017-11-18T17:14:51.276Z,18.80
2017-11-18T17:17:18.782Z,10.33
2017-11-18T17:19:46.320Z,9.97
2017-11-18T17:22:13.815Z,13.40
2017-11-18T17:24:41.357Z,6.70
2017-11-18T17:27:08.868Z,13.33
2017-11-18T17:29:36.366Z,10.93
2017-11-18T17:32:03.889Z,8.23
2017-11-18T17:34:31.383Z,8.50
2017-11-18T17:36:58.916Z,7.57
2017-11-18T17:39:26.430Z,7.53
2017-11-18T17:41:53.963Z,13.10
2017-11-18T17:44:21.445Z,7.97
2017-11-18T17:46:48.984Z,11.53
2017-11-18T17:49:17.245Z,9.33
2017-11-18T17:51:44.783Z,9.13
2017-11-18T17:54:12.272Z,9.40
2017-11-18T17:56:39.822Z,12.00
2017-11-18T17:59:07.327Z,12.40
2017-11-18T18:01:34.843Z,8.63
2017-11-18T18:04:03.138Z,12.70
2017-11-18T18:06:30.650Z,18.30
2017-11-18T18:08:58.189Z,10.60
2017-11-18T18:11:25.686Z,8.27
2017-11-18T18:13:54.084Z,14.77
2017-11-18T18:16:21.678Z,14.87
2017-11-18T18:18:49.241Z,10.47
2017-11-18T18:21:16.772Z,8.20
2017-11-18T18:23:45.034Z,14.73
2017-11-18T18:26:13.335Z,8.60
2017-11-18T18:28:40.854Z,13.77
2017-11-18T18:31:08.407Z,12.60
2017-11-18T18:33:35.907Z,9.10
2017-11-18T18:36:03.520Z,11.20
2017-11-18T18:38:31.814Z,12.63
2017-11-18T18:41:00.133Z,10.20
2017-11-18T18:43:27.698Z,12.40
2017-11-18T18:45:55.216Z,11.50
2017-11-18T18:48:22.806Z,10.13
2017-11-18T18:50:51.066Z,10.43
2017-11-18T18:53:18.604Z,9.53
2017-11-18T18:55:46.116Z,12.27
2017-11-18T18:58:13.671Z,16.63
2017-11-18T19:00:41.201Z,7.57
2017-11-18T19:03:08.749Z,10.77
2017-11-18T19:05:37.034Z,10.60
2017-11-18T19:08:04.534Z,16.43
2017-11-18T19:10:32.083Z,10.33
2017-11-18T19:12:59.584Z,12.50
2017-11-18T19:15:27.150Z,5.40
2017-11-18T19:17:54.662Z,12.97
2017-11-18T19:20:22.229Z,16.37
2017-11-18T19:22:49.732Z,8.23
2017-11-18T19:25:17.271Z,15.93
2017-11-18T19:27:44.770Z,8.30
2017-11-18T19:30:12.327Z,9.60
2017-11-18T19:32:39.839Z,10.13
2017-11-18T19:35:08.172Z,10.10
2017-11-18T19:37:35.695Z,13.03
2017-11-18T19:40:04.331Z,10.43
2017-11-18T19:42:32.833Z,15.60
2017-11-18T19:45:00.366Z,17.37
2017-11-18T19:47:28.685Z,12.53
2017-11-18T19:49:56.194Z,12.10
2017-11-18T19:52:23.808Z,8.80
2017-11-18T19:54:52.057Z,9.40
2017-11-18T19:57:19.612Z,8.60
2017-11-18T19:59:47.119Z,8.03
2017-11-18T20:02:14.727Z,7.90
2017-11-18T20:04:42.264Z,20.50
2017-11-18T20:07:09.800Z,5.30
2017-11-18T20:09:38.586Z,10.17
2017-11-18T20:12:06.252Z,12.53
2017-11-18T20:14:33.799Z,7.77
2017-11-18T20:17:01.401Z,15.00
2017-11-18T20:19:28.904Z,10.03
2017-11-18T20:21:57.404Z,7.53
2017-11-18T20:24:24.974Z,9.50
2017-11-18T20:26:52.485Z,6.70
2017-11-18T20:29:20.021Z,7.40
2017-11-18T20:31:47.519Z,9.53
2017-11-18T20:34:16.775Z,9.70
2017-11-18T20:36:44.679Z,10.47
2017-11-18T20:39:12.226Z,12.03
2017-11-18T20:41:39.830Z,8.70
2017-11-18T20:44:08.082Z,7.07
2017-11-18T20:46:35.629Z,5.20
2017-11-18T20:49:03.891Z,6.63
2017-11-18T20:51:31.455Z,6.13
2017-11-18T20:53:59.009Z,7.23
2017-11-18T20:56:26.583Z,9.97
2017-11-18T20:58:54.100Z,6.97
2017-11-18T21:01:21.692Z,7.00
2017-11-18T21:03:50.015Z,7.53
2017-11-18T21:06:17.622Z,9.00
2017-11-18T21:08:55.860Z,7.63
2017-11-18T21:11:23.370Z,6.70
2017-11-18T21:13:50.930Z,5.43
2017-11-18T21:16:19.231Z,4.20
2017-11-18T21:18:46.779Z,9.00
2017-11-18T21:21:15.039Z,5.70
2017-11-18T21:23:42.585Z,9.23
2017-11-18T21:26:10.078Z,9.80
2017-11-18T21:28:37.622Z,7.63
2017-11-18T21:31:05.109Z,6.70
2017-11-18T21:33:32.662Z,14.73
2017-11-18T21:36:00.217Z,5.57
2017-11-18T21:38:27.714Z,5.87
2017-11-18T21:40:55.262Z,5.37
2017-11-18T21:43:22.784Z,6.97
2017-11-18T21:45:50.309Z,3.50
2017-11-18T21:48:17.798Z,4.80
2017-11-18T21:50:45.323Z,9.20
2017-11-18T21:53:13.598Z,6.47
2017-11-18T21:55:41.102Z,11.20
2017-11-18T21:58:08.644Z,9.77
2017-11-18T22:00:36.135Z,9.00
2017-11-18T22:03:04.434Z,7.50
2017-11-18T22:05:31.944Z,10.60
2017-11-18T22:07:59.479Z,8.50
2017-11-18T22:10:26.971Z,10.63
2017-11-18T22:12:54.498Z,11.40
2017-11-18T22:15:22.773Z,11.03
2017-11-18T22:17:50.319Z,6.53
2017-11-18T22:20:17.815Z,3.57
2017-11-18T22:22:45.315Z,5.27
2017-11-18T22:25:13.605Z,5.17
2017-11-18T22:27:41.098Z,4.73
2017-11-18T22:30:08.626Z,5.47
2017-11-18T22:32:36.129Z,3.17
2017-11-18T22:35:03.665Z,20.57
2017-11-18T22:37:31.198Z,13.47
2017-11-18T22:39:58.740Z,10.23
2017-11-18T22:42:26.266Z,8.97
2017-11-18T22:44:53.812Z,6.23
2017-11-18T22:47:21.318Z,9.40
2017-11-18T22:49:48.814Z,7.40
2017-11-18T22:52:17.111Z,5.80
2017-11-18T22:54:44.611Z,12.33
2017-11-18T22:57:12.131Z,6.40
2017-11-18T22:59:40.392Z,6.93
2017-11-18T23:02:07.935Z,8.60
2017-11-18T23:04:35.430Z,11.40
2017-11-18T23:07:02.994Z,10.17
2017-11-18T23:09:30.486Z,9.20
2017-11-18T23:11:58.018Z,7.80
2017-11-18T23:14:25.528Z,10.57
2017-11-18T23:16:53.083Z,13.87
2017-11-18T23:19:20.583Z,9.57
2017-11-18T23:21:48.138Z,12.57
2017-11-18T23:24:15.664Z,9.00
2017-11-18T23:26:43.219Z,15.00
2017-11-18T23:29:11.547Z,13.17
2017-11-18T23:31:39.042Z,14.67
2017-11-18T23:34:06.574Z,11.00
2017-11-18T23:36:34.063Z,10.20
2017-11-18T23:39:01.593Z,10.70
2017-11-18T23:41:29.853Z,11.60
2017-11-18T23:43:57.439Z,10.50
2017-11-18T23:46:24.929Z,9.97
2017-11-18T23:48:53.185Z,11.03
2017-11-18T23:51:20.735Z,16.40
2017-11-18T23:53:48.261Z,12.87
2017-11-18T23:56:15.818Z,13.03
2017-11-18T23:58:43.323Z,16.00
